Hlavní strana
METAR-TAF:

METAR-TAF

Letiště :

Orenburg, Rusko

zeměpisná šířka: 51-46-48N, zeměpisná délka: 055-07-12E, výška: 109 m

Aktuální stav počasí

Zpráva byla vytvořena před 28 minutami, v 00:00 UTC
vítr z různých směrů 2 kt
Teplota -15°C
Vlhkost vzduchu 85%
Tlak 1039 hPa
Viditelnost: 6000 m

METAR: UWOO 230000Z VRB01MPS 6000 NSC M15/M17 Q1039 R08/820154 NOSIG RMK QFE768/1024

Čas: 05:28 (00:28 UTC)

Předpověď počasí

Zpráva byla vytvořena před 1 hodinou a 39 minutami, v 22:49 UTC
Předpověď platná od 23 v 00 UTC do 23 v 24 UTC
Severní vítr 6 kt s nárazy do 16 kt
Viditelnost: 3100 m
Zataženo ve výšce 1100 ft
kouřmo
Dočasný
od 23 v 00 UTC do 23 v 06 UTC
vítr z různých směrů 2 kt
Viditelnost: 0400 m
ve výšce 400 ft
(slabý) sněhová zrna, mrznoucí mlha

TAF: UWOO 222249Z 2300/2324 35003G08MPS 3100 BR OVC011 TXM06/2309Z TNM15/2303Z TEMPO 2300/2306 VRB01MPS 0400 -SG FZFG VV004

Stav a předpovědi počasí z více než 4 000 letišť (zprávy METAR a TAF).

Červené a žluté tečky na mapě představují dostupné meteorologické stanice.

Když kurzor umístíte na tečku, zobrazí se název stanice.

Pak kliknutím zobrazíte stav a předpověď počasí.

Chcete-li změnit mapu, kliknutím na zelené tlačítko se znaménkem +mapu přiblížíte, kliknutím na zelené tlačítko se znaménkem – mapu oddálíte a kliknutím na zelené šipky přejdete na sousední mapy.


METAR-TAF: